Flight Track Log - Related Links

Times and Time Zones

All times are in EDT time to prevent confusion due to time zone crossing. See the RPA3121 flight status page for this flight to view local times or setup timezone preferences in your user account.

Time Position Orientation Groundspeed Altitude Reporting Facility
EDT Latitude Longitude Course Direction KTS MPH feet Rate Location/Type
Wed 10:23:11 AM 39.8230 -75.3210 219° Southwest 189 217 1,500  Level FlightAware ADS-B
Wed 10:23:34 AM 39.7980 -75.3460 218° Southwest 228 262 2,300 2,069 Climbing FlightAware ADS-B
Wed 10:24:09 AM 39.7650 -75.3800 218° Southwest 267 307 3,500 2,200 Climbing FlightAware ADS-B
Wed 10:24:34 AM 39.7340 -75.3930 198° South 262 302 4,500 2,471 Climbing FlightAware ADS-B
Wed 10:25:00 AM 39.7050 -75.3860 169° South 268 308 5,600 1,269 Climbing FlightAware ADS-B
Wed 10:25:26 AM 39.6780 -75.3770 166° South 268 308 5,600 2,366 Level FlightAware ADS-B
Wed 10:26:11 AM 39.6175 -75.3625 166° South 274 315 8,400 2,660 Climbing Washington Center
Wed 10:27:12 AM 39.5342 -75.3386 168° South 293 337 10,300 1,686 Climbing Washington Center
Wed 10:28:12 AM 39.4486 -75.3389 180° South 328 377 11,800 1,750 Climbing Washington Center
Wed 10:29:12 AM 39.3342 -75.3581 187° South 352 405 13,800 1,835 Climbing Washington Center
Wed 10:30:13 AM 39.2319 -75.3772 188° South 364 419 15,500 1,636 Climbing Washington Center
Wed 10:31:13 AM 39.1319 -75.3908 186° South 370 426 17,100 1,412 Climbing Washington Center
Wed 10:32:12 AM 39.0256 -75.4072 187° South 370 426 18,300 1,261 Climbing Washington Center
Wed 10:33:12 AM 38.9214 -75.4236 187° South 375 432 19,600 1,388 Climbing Washington Center
Wed 10:34:13 AM 38.8153 -75.4397 187° South 380 437 21,100 1,289 Climbing Washington Center
Wed 10:35:13 AM 38.7069 -75.4586 188° South 390 449 22,200 1,119 Climbing Washington Center
Wed 10:36:11 AM 38.5964 -75.4747 186° South 390 449 23,300 1,017 Climbing Washington Center
Wed 10:37:11 AM 38.4839 -75.4883 185° South 401 461 24,200 992 Climbing Washington Center
Wed 10:38:12 AM 38.3711 -75.5069 187° South 407 468 25,300 1,033 Climbing Washington Center
Wed 10:39:13 AM 38.2711 -75.5758 208° Southwest 407 468 26,300 958 Climbing Washington Center
Wed 10:40:11 AM 38.1878 -75.6603 219° Southwest 407 468 27,200 908 Climbing Washington Center
Wed 10:41:12 AM 38.0917 -75.7447 215° Southwest 418 481 28,100 893 Climbing Washington Center
Wed 10:42:12 AM 37.9956 -75.8342 216° Southwest 424 488 29,000 942 Climbing Washington Center
Wed 10:43:13 AM 37.8975 -75.9286 217° Southwest 437 503 30,000 942 Climbing Washington Center
Wed 10:44:13 AM 37.7992 -76.0203 216° Southwest 442 509 30,900 915 Climbing Washington Center
Wed 10:45:11 AM 37.6922 -76.1272 218° Southwest 447 514 31,800 555 Climbing Washington Center
Wed 10:46:12 AM 37.6003 -76.2053 214° Southwest 447 514 32,000 98 Climbing Washington Center
Wed 10:47:13 AM 37.5058 -76.2908 216° Southwest 436 502 32,000  Level Washington Center
Wed 10:48:10 AM 37.4114 -76.3789 217° Southwest 431 496 32,000  Level Washington Center
Wed 10:49:12 AM 37.3128 -76.4667 215° Southwest 431 496 32,000  Level Washington Center
Wed 10:50:13 AM 37.2161 -76.5542 216° Southwest 431 496 32,000  Level Washington Center
Wed 10:51:10 AM 37.1194 -76.6442 217° Southwest 431 496 32,000  Level Washington Center
Wed 10:52:11 AM 37.0247 -76.7314 216° Southwest 431 496 32,000  Level Washington Center
Wed 10:53:12 AM 36.9300 -76.8183 216° Southwest 431 496 32,000  Level Washington Center
Wed 10:54:13 AM 36.8311 -76.9050 215° Southwest 431 496 32,000  Level Washington Center
Wed 10:55:13 AM 36.7361 -76.9914 216° Southwest 431 496 32,000  Level Washington Center
Wed 10:56:11 AM 36.6414 -77.0831 218° Southwest 431 496 32,000  Level Washington Center
Wed 10:57:11 AM 36.5483 -77.1692 217° Southwest 431 496 32,000  Level Washington Center
Wed 10:58:12 AM 36.4553 -77.2603 218° Southwest 431 496 32,000  Level Washington Center
Wed 10:59:12 AM 36.3603 -77.3433 215° Southwest 431 496 32,000  Level Washington Center
Wed 11:00:13 AM 36.2669 -77.4367 219° Southwest 437 503 32,000  Level Washington Center
Wed 11:01:13 AM 36.1656 -77.5294 216° Southwest 432 497 32,000  Level Washington Center
Wed 11:02:11 AM 36.0661 -77.6117 214° Southwest 432 497 32,000  Level Washington Center
Wed 11:03:12 AM 35.9686 -77.6914 214° Southwest 432 497 32,000  Level Washington Center
Wed 11:04:13 AM 35.8714 -77.7683 213° Southwest 432 497 32,000  Level Washington Center
Wed 11:05:11 AM 35.7717 -77.8475 213° Southwest 426 490 32,000  Level Washington Center
Wed 11:06:11 AM 35.6742 -77.9264 213° Southwest 426 490 32,000  Level Washington Center
Wed 11:07:12 AM 35.5725 -78.0053 212° Southwest 426 490 32,000  Level Washington Center
Wed 11:08:12 AM 35.4750 -78.0814 212° Southwest 426 490 32,000  Level Washington Center
Wed 11:09:13 AM 35.3733 -78.1597 212° Southwest 426 490 32,000  Level Washington Center
Wed 11:10:10 AM 35.2733 -78.2378 213° Southwest 426 490 32,000  Level Washington Center
Wed 11:11:11 AM 35.1756 -78.3186 214° Southwest 426 490 32,000  Level Washington Center
Wed 11:12:12 AM 35.0844 -78.3892 212° Southwest 426 490 32,000  Level Washington Center
Wed 11:13:13 AM 34.9864 -78.4667 213° Southwest 426 490 32,000  Level Washington Center
Wed 11:14:11 AM 34.8886 -78.5444 213° Southwest 426 490 32,000 -604 Level Washington Center
Wed 11:15:42 AM 34.7333 -78.6639 212° Southwest 405 466 30,500 -1,550 Descending Jacksonville Center
Wed 11:16:42 AM 34.6297 -78.7444 213° Southwest 426 490 28,100 -833 Descending Jacksonville Center
Wed 11:18:42 AM 34.4244 -78.9106 214° Southwest 444 511 28,000 -367 Descending Jacksonville Center
Wed 11:19:42 AM 34.3225 -78.9881 212° Southwest 444 511 27,000 -1,400 Descending Jacksonville Center
Wed 11:20:42 AM 34.2181 -79.0456 204° Southwest 434 499 25,200 -1,500 Descending Jacksonville Center
Wed 11:21:42 AM 34.1131 -79.0953 201° Southwest 418 481 24,000 -600 Descending Jacksonville Center
Wed 11:22:42 AM 34.0122 -79.1397 200° South 406 467 24,000 -550 Level Jacksonville Center
Wed 11:23:42 AM 33.9072 -79.1867 200° South 406 467 22,900 -1,550 Descending Jacksonville Center
Wed 11:24:42 AM 33.8061 -79.2311 200° South 401 461 20,900 -2,000 Descending Jacksonville Center
Wed 11:25:42 AM 33.7161 -79.2922 209° Southwest 388 447 18,900 -1,850 Descending Jacksonville Center
Wed 11:26:42 AM 33.6261 -79.3581 211° Southwest 377 434 17,200 -1,850 Descending Jacksonville Center
Wed 11:27:42 AM 33.5425 -79.4214 212° Southwest 377 434 15,200 -1,900 Descending Jacksonville Center
Wed 11:28:42 AM 33.4564 -79.4844 211° Southwest 365 420 13,400 -1,850 Descending Jacksonville Center
Wed 11:29:42 AM 33.3789 -79.5447 213° Southwest 355 409 11,500 -1,200 Descending Jacksonville Center
Wed 11:30:42 AM 33.2947 -79.6050 211° Southwest 350 403 11,000 -250 Descending Jacksonville Center
Wed 11:31:42 AM 33.2169 -79.6650 213° Southwest 350 403 11,000 -600 Level Jacksonville Center
Wed 11:32:42 AM 33.1433 -79.7197 212° Southwest 337 388 9,800 -1,400 Descending Jacksonville Center
Wed 11:33:42 AM 33.0686 -79.7397 193° South 295 339 8,200 -1,650 Descending Jacksonville Center
Wed 11:34:42 AM 32.9853 -79.7400 180° South 290 334 6,500 -1,650 Descending Jacksonville Center
Wed 11:35:42 AM 32.9236 -79.7794 208° Southwest 285 328 4,900 8,750 Descending Jacksonville Center
Wed 11:36:42 AM 32.8494 -79.8167 203° Southwest 285 328 24,000 9,550 Climbing Jacksonville Center
Wed 11:37:42 AM 32.7833 -79.8483 202° Southwest 285 328 24,000  Level Jacksonville Center

Login

Don't have an account? Register now (free) for customized features, flight alerts, and more!